createdAt,value
2024-04-17T00:00:32.198Z,98857.76
2024-04-17T00:03:20.888Z,98862.49
2024-04-17T00:05:48.833Z,98861.60
2024-04-17T00:08:16.491Z,98854.68
2024-04-17T00:10:44.339Z,98848.33
2024-04-17T00:13:12.436Z,98840.23
2024-04-17T00:15:40.713Z,98833.72
2024-04-17T00:18:08.552Z,98832.98
2024-04-17T00:20:36.337Z,98833.64
2024-04-17T00:23:04.329Z,98837.37
2024-04-17T00:25:31.849Z,98842.76
2024-04-17T00:27:59.435Z,98842.90
2024-04-17T00:30:27.310Z,98839.72
2024-04-17T00:32:55.263Z,98838.91
2024-04-17T00:35:27.316Z,98839.18
2024-04-17T00:37:57.368Z,98835.46
2024-04-17T00:40:25.038Z,98833.48
2024-04-17T00:42:53.642Z,98833.66
2024-04-17T00:45:21.824Z,98841.27
2024-04-17T00:47:49.515Z,98840.23
2024-04-17T00:50:17.617Z,98841.90
2024-04-17T00:52:45.497Z,98843.41
2024-04-17T00:55:13.382Z,98847.05
2024-04-17T00:57:42.088Z,98850.88
2024-04-17T01:00:11.262Z,98853.80
2024-04-17T01:02:39.027Z,98854.20
2024-04-17T01:05:06.912Z,98856.19
2024-04-17T01:07:35.185Z,98856.19
2024-04-17T01:10:03.054Z,98860.64
2024-04-17T01:12:30.685Z,98856.42
2024-04-17T01:14:58.353Z,98860.31
2024-04-17T01:17:27.076Z,98865.05
2024-04-17T01:19:55.069Z,98867.99
2024-04-17T01:22:23.043Z,98867.25
2024-04-17T01:24:50.852Z,98872.34
2024-04-17T01:27:18.539Z,98874.23
2024-04-17T01:29:46.229Z,98875.40
2024-04-17T01:32:14.065Z,98870.66
2024-04-17T01:34:41.746Z,98868.67
2024-04-17T01:37:09.784Z,98868.52
2024-04-17T01:39:37.446Z,98864.96
2024-04-17T01:42:05.911Z,98861.63
2024-04-17T01:44:33.602Z,98857.75
2024-04-17T01:47:01.747Z,98859.14
2024-04-17T01:49:31.080Z,98859.88
2024-04-17T01:51:58.973Z,98860.58
2024-04-17T01:54:26.808Z,98862.10
2024-04-17T01:56:55.245Z,98865.11
2024-04-17T01:59:23.160Z,98867.84
2024-04-17T02:01:55.809Z,98867.86
2024-04-17T02:04:23.659Z,98864.00
2024-04-17T02:06:51.388Z,98864.57
2024-04-17T02:09:19.135Z,98863.58
2024-04-17T02:11:46.955Z,98861.55
2024-04-17T02:14:15.385Z,98860.86
2024-04-17T02:16:43.464Z,98860.41
2024-04-17T02:19:11.631Z,98860.43
2024-04-17T02:21:39.294Z,98860.38
2024-04-17T02:24:07.101Z,98860.32
2024-04-17T02:26:34.818Z,98865.96
2024-04-17T02:29:02.847Z,98866.27
2024-04-17T02:31:30.543Z,98863.42
2024-04-17T02:33:58.428Z,98862.42
2024-04-17T02:36:26.193Z,98864.18
2024-04-17T02:38:53.868Z,98861.90
2024-04-17T02:41:21.622Z,98861.66
2024-04-17T02:43:49.314Z,98860.09
2024-04-17T02:46:17.297Z,98856.84
2024-04-17T02:48:45.174Z,98854.94
2024-04-17T02:51:12.784Z,98855.73
2024-04-17T02:53:40.458Z,98855.98
2024-04-17T02:56:08.116Z,98854.65
2024-04-17T02:58:37.304Z,98859.66
2024-04-17T03:01:17.326Z,98856.73
2024-04-17T03:03:45.975Z,98854.95
2024-04-17T03:06:13.721Z,98857.66
2024-04-17T03:08:41.486Z,98858.27
2024-04-17T03:11:09.255Z,98859.55
2024-04-17T03:13:37.075Z,98856.08
2024-04-17T03:16:05.404Z,98856.09
2024-04-17T03:18:33.745Z,98852.77
2024-04-17T03:21:02.063Z,98855.39
2024-04-17T03:23:29.840Z,98853.85
2024-04-17T03:25:58.732Z,98852.46
2024-04-17T03:28:27.550Z,98854.98
2024-04-17T03:30:59.368Z,98860.06
2024-04-17T03:33:27.234Z,98864.10
2024-04-17T03:36:00.259Z,98866.48
2024-04-17T03:38:28.625Z,98869.50
2024-04-17T03:40:57.010Z,98868.02
2024-04-17T03:43:25.015Z,98869.55
2024-04-17T03:46:24.157Z,98868.15
2024-04-17T03:48:52.126Z,98868.16
2024-04-17T03:51:19.852Z,98868.09
2024-04-17T03:53:49.912Z,98872.55
2024-04-17T03:56:17.591Z,98875.58
2024-04-17T03:58:45.269Z,98876.34
2024-04-17T04:01:14.641Z,98884.98
2024-04-17T04:03:42.513Z,98883.36
2024-04-17T04:06:11.913Z,98887.17
2024-04-17T04:08:39.679Z,98889.35
2024-04-17T04:11:07.901Z,98893.59
2024-04-17T04:13:35.855Z,98890.20
2024-04-17T04:16:04.207Z,98899.89
2024-04-17T04:18:32.012Z,98901.17
2024-04-17T04:20:59.941Z,98906.26
2024-04-17T04:23:27.808Z,98909.72
2024-04-17T04:25:55.562Z,98916.77
2024-04-17T04:28:23.381Z,98919.27
2024-04-17T04:30:52.986Z,98920.00
2024-04-17T04:33:20.805Z,98925.65
2024-04-17T04:35:48.586Z,98927.25
2024-04-17T04:38:16.458Z,98932.73
2024-04-17T04:40:44.327Z,98934.81
2024-04-17T04:43:12.333Z,98935.19
2024-04-17T04:45:39.963Z,98940.27
2024-04-17T04:48:11.362Z,98940.70
2024-04-17T04:50:44.344Z,98943.02
2024-04-17T04:53:12.007Z,98945.41
2024-04-17T04:55:39.887Z,98946.55
2024-04-17T04:58:07.643Z,98951.52
2024-04-17T05:00:35.499Z,98952.16
2024-04-17T05:03:03.497Z,98948.27
2024-04-17T05:05:31.635Z,98951.13
2024-04-17T05:07:59.809Z,98953.48
2024-04-17T05:10:28.151Z,98954.56
2024-04-17T05:12:56.176Z,98953.36
2024-04-17T05:15:24.130Z,98956.34
2024-04-17T05:17:52.172Z,98959.98
2024-04-17T05:20:20.598Z,98958.48
2024-04-17T05:22:49.067Z,98962.49
2024-04-17T05:25:17.644Z,98966.89
2024-04-17T05:27:45.548Z,98965.20
2024-04-17T05:30:13.717Z,98971.19
2024-04-17T05:32:41.992Z,98969.02
2024-04-17T05:35:09.821Z,98971.13
2024-04-17T05:37:37.431Z,98975.36
2024-04-17T05:40:07.018Z,98974.84
2024-04-17T05:42:34.974Z,98977.66
2024-04-17T05:45:02.715Z,98978.64
2024-04-17T05:47:31.639Z,98979.14
2024-04-17T05:50:03.324Z,98977.80
2024-04-17T05:52:33.859Z,98979.23
2024-04-17T05:55:01.815Z,98979.09
2024-04-17T05:57:29.544Z,98982.31
2024-04-17T05:59:57.617Z,98980.52
2024-04-17T06:02:25.330Z,98982.52
2024-04-17T06:04:53.363Z,98985.16
2024-04-17T06:07:21.129Z,98984.10
2024-04-17T06:09:48.898Z,98991.26
2024-04-17T06:12:17.019Z,98995.72
2024-04-17T06:14:44.824Z,98997.66
2024-04-17T06:17:12.903Z,98996.60
2024-04-17T06:19:40.600Z,99001.00
2024-04-17T06:22:08.255Z,99001.98
2024-04-17T06:24:35.905Z,99006.80
2024-04-17T06:27:04.206Z,99010.80
2024-04-17T06:29:31.924Z,99015.13
2024-04-17T06:31:59.791Z,99012.00
2024-04-17T06:34:28.496Z,99013.02
2024-04-17T06:36:56.256Z,99014.39
2024-04-17T06:39:23.948Z,99012.70
2024-04-17T06:42:00.498Z,99012.05
2024-04-17T06:44:30.730Z,99014.17
2024-04-17T06:46:59.148Z,99013.64
2024-04-17T06:49:28.437Z,99014.79
2024-04-17T06:51:56.566Z,99016.35
2024-04-17T06:54:24.640Z,99018.46
2024-04-17T06:56:52.507Z,99021.03
2024-04-17T06:59:20.677Z,99020.23
2024-04-17T07:01:48.530Z,99024.32
2024-04-17T07:04:16.413Z,99029.95
2024-04-17T07:06:44.087Z,99031.36
2024-04-17T07:09:11.949Z,99032.11
2024-04-17T07:11:39.637Z,99033.12
2024-04-17T07:14:07.493Z,99038.45
2024-04-17T07:16:35.267Z,99034.42
2024-04-17T07:19:03.259Z,99038.48
2024-04-17T07:21:30.984Z,99039.50
2024-04-17T07:23:58.855Z,99042.56
2024-04-17T07:26:26.511Z,99045.85
2024-04-17T07:28:54.325Z,99050.86
2024-04-17T07:31:22.156Z,99052.94
2024-04-17T07:33:49.815Z,99054.64
2024-04-17T07:36:17.586Z,99059.59
2024-04-17T07:38:48.517Z,99059.72
2024-04-17T07:41:18.499Z,99064.89
2024-04-17T07:43:47.988Z,99068.67
2024-04-17T07:46:15.835Z,99069.74
2024-04-17T07:48:43.738Z,99073.43
2024-04-17T07:51:11.548Z,99077.81
2024-04-17T07:53:39.311Z,99080.54
2024-04-17T07:56:07.153Z,99082.40
2024-04-17T07:58:35.108Z,99087.41
2024-04-17T08:01:03.070Z,99090.20
2024-04-17T08:03:30.922Z,99094.86
2024-04-17T08:05:58.759Z,99095.12
2024-04-17T08:08:26.415Z,99099.74
2024-04-17T08:10:54.151Z,99100.42
2024-04-17T08:13:21.950Z,99100.37
2024-04-17T08:15:53.749Z,99105.20
2024-04-17T08:18:22.329Z,99106.41
2024-04-17T08:20:56.573Z,99108.05
2024-04-17T08:23:26.389Z,99109.21
2024-04-17T08:25:55.479Z,99109.17
2024-04-17T08:28:23.409Z,99113.17
2024-04-17T08:30:51.280Z,99113.40
2024-04-17T08:33:19.226Z,99115.04
2024-04-17T08:35:47.179Z,99119.77
2024-04-17T08:38:15.153Z,99121.64
2024-04-17T08:40:43.213Z,99126.29
2024-04-17T08:43:25.893Z,99132.89
2024-04-17T08:45:55.453Z,99136.66
2024-04-17T08:48:26.946Z,99142.19
2024-04-17T08:50:56.479Z,99142.80
2024-04-17T08:53:27.236Z,99144.62
2024-04-17T08:55:56.349Z,99144.30
2024-04-17T08:58:24.669Z,99148.45
2024-04-17T09:00:53.241Z,99154.08
2024-04-17T09:03:24.442Z,99157.80
2024-04-17T09:05:57.181Z,99159.13
2024-04-17T09:08:28.315Z,99162.84
2024-04-17T09:10:57.148Z,99165.15
2024-04-17T09:13:25.122Z,99166.64
2024-04-17T09:15:53.885Z,99170.45
2024-04-17T09:18:29.240Z,99174.09
2024-04-17T09:20:57.068Z,99175.88
2024-04-17T09:23:25.440Z,99176.55
2024-04-17T09:25:55.837Z,99180.39
2024-04-17T09:28:24.192Z,99179.36
2024-04-17T09:30:52.537Z,99179.59
2024-04-17T09:33:20.494Z,99180.49
2024-04-17T09:35:48.364Z,99184.91
2024-04-17T09:38:16.688Z,99188.62
2024-04-17T09:40:45.436Z,99187.80
2024-04-17T09:43:29.653Z,99191.90
2024-04-17T09:46:08.151Z,99191.70
2024-04-17T09:48:42.569Z,99198.24
2024-04-17T09:51:12.020Z,99202.06
2024-04-17T09:54:00.426Z,99201.95
2024-04-17T09:56:29.044Z,99204.63
2024-04-17T09:59:06.660Z,99203.94
2024-04-17T10:01:41.548Z,99209.43
2024-04-17T10:04:13.092Z,99213.56
2024-04-17T10:06:43.876Z,99216.47
2024-04-17T10:09:16.291Z,99215.83
2024-04-17T10:11:46.609Z,99217.45
2024-04-17T10:14:14.472Z,99222.34
2024-04-17T10:16:42.469Z,99223.41
2024-04-17T10:19:10.704Z,99225.29
2024-04-17T10:21:38.502Z,99228.00
2024-04-17T10:24:10.828Z,99230.71
2024-04-17T10:26:45.161Z,99234.91
2024-04-17T10:29:25.216Z,99234.88
2024-04-17T10:32:04.429Z,99240.77
2024-04-17T10:34:44.468Z,99242.09
2024-04-17T10:37:13.108Z,99243.49
2024-04-17T10:39:41.854Z,99248.37
2024-04-17T10:42:10.730Z,99248.70
2024-04-17T10:44:46.730Z,99249.74
2024-04-17T10:47:29.240Z,99257.27
2024-04-17T10:50:02.492Z,99262.05
2024-04-17T10:52:32.346Z,99265.98
2024-04-17T10:55:04.234Z,99269.99
2024-04-17T10:57:33.475Z,99272.05
2024-04-17T11:00:01.802Z,99274.63
2024-04-17T11:02:30.623Z,99277.80
2024-04-17T11:04:58.703Z,99284.86
2024-04-17T11:07:26.881Z,99285.20
2024-04-17T11:09:55.007Z,99290.84
2024-04-17T11:12:23.007Z,99289.58
2024-04-17T11:15:01.012Z,99287.34
2024-04-17T11:17:29.699Z,99287.14
2024-04-17T11:19:57.956Z,99288.38
2024-04-17T11:22:26.161Z,99293.11
2024-04-17T11:24:58.925Z,99296.11
2024-04-17T11:27:26.967Z,99295.55
2024-04-17T11:29:55.189Z,99300.05
2024-04-17T11:32:22.962Z,99300.52
2024-04-17T11:34:50.824Z,99302.13
2024-04-17T11:37:19.259Z,99303.00
2024-04-17T11:39:49.055Z,99305.64
2024-04-17T11:42:17.971Z,99309.79
2024-04-17T11:44:46.310Z,99305.73
2024-04-17T11:47:16.546Z,99306.61
2024-04-17T11:49:45.007Z,99311.91
2024-04-17T11:52:14.274Z,99315.63
2024-04-17T11:54:43.179Z,99319.30
2024-04-17T11:57:14.660Z,99318.03
2024-04-17T11:59:47.003Z,99323.21
2024-04-17T12:02:15.741Z,99321.06
2024-04-17T12:04:44.344Z,99322.21
2024-04-17T12:07:13.650Z,99324.58
2024-04-17T12:09:41.444Z,99324.16
2024-04-17T12:12:09.334Z,99324.29
2024-04-17T12:14:37.282Z,99323.31
2024-04-17T12:17:05.939Z,99323.93
2024-04-17T12:19:33.841Z,99325.46
2024-04-17T12:22:01.801Z,99323.05
2024-04-17T12:24:49.530Z,99323.81
2024-04-17T12:27:17.582Z,99324.69
2024-04-17T12:29:45.551Z,99325.76
2024-04-17T12:32:13.606Z,99326.49
2024-04-17T12:34:41.949Z,99329.14
2024-04-17T12:37:15.168Z,99327.98
2024-04-17T12:39:43.304Z,99329.97
2024-04-17T12:42:12.727Z,99326.56
2024-04-17T12:44:40.871Z,99327.86
2024-04-17T12:47:08.928Z,99329.52
2024-04-17T12:49:39.180Z,99332.85
2024-04-17T12:52:07.171Z,99331.58
2024-04-17T12:54:34.997Z,99333.14
2024-04-17T12:57:02.975Z,99333.67
2024-04-17T12:59:33.093Z,99340.99
2024-04-17T13:02:01.641Z,99334.09
2024-04-17T13:04:29.610Z,99338.32
2024-04-17T13:06:57.740Z,99336.24
2024-04-17T13:09:25.387Z,99334.45
2024-04-17T13:11:53.340Z,99331.59
2024-04-17T13:14:21.192Z,99337.73
2024-04-17T13:16:48.970Z,99335.02
2024-04-17T13:19:16.859Z,99334.13
2024-04-17T13:21:44.630Z,99336.95
2024-04-17T13:24:12.802Z,99336.55
2024-04-17T13:26:40.633Z,99337.05
2024-04-17T13:29:09.399Z,99330.64
2024-04-17T13:31:37.648Z,99335.84
2024-04-17T13:34:05.365Z,99337.77
2024-04-17T13:36:33.014Z,99335.30
2024-04-17T13:39:00.731Z,99330.05
2024-04-17T13:41:28.905Z,99331.39
2024-04-17T13:43:56.786Z,99333.89
2024-04-17T13:46:25.794Z,99333.54
2024-04-17T13:48:53.979Z,99334.02
2024-04-17T13:51:21.813Z,99335.70
2024-04-17T13:53:54.416Z,99339.30
2024-04-17T13:56:28.032Z,99339.86
2024-04-17T13:58:57.141Z,99343.20
2024-04-17T14:01:25.433Z,99347.11
2024-04-17T14:03:53.301Z,99343.08
2024-04-17T14:06:21.773Z,99343.53
2024-04-17T14:08:49.592Z,99344.57
2024-04-17T14:11:18.002Z,99346.42
2024-04-17T14:13:46.162Z,99349.84
2024-04-17T14:16:13.968Z,99351.96
2024-04-17T14:18:41.807Z,99355.67
2024-04-17T14:21:17.196Z,99353.44
2024-04-17T14:23:48.010Z,99353.89
2024-04-17T14:26:22.000Z,99353.55
2024-04-17T14:28:50.041Z,99353.27
2024-04-17T14:31:17.767Z,99349.68
2024-04-17T14:33:45.980Z,99346.55
2024-04-17T14:36:15.307Z,99351.16
2024-04-17T14:38:44.409Z,99351.09
2024-04-17T14:41:12.449Z,99352.11
2024-04-17T14:43:40.242Z,99350.27
2024-04-17T14:46:08.134Z,99351.61
2024-04-17T14:48:37.069Z,99352.23
2024-04-17T14:51:07.338Z,99353.95
2024-04-17T14:53:37.776Z,99354.63
2024-04-17T14:56:08.311Z,99356.95
2024-04-17T14:58:38.131Z,99358.35
2024-04-17T15:01:08.281Z,99357.53
2024-04-17T15:03:37.603Z,99364.63
2024-04-17T15:06:08.055Z,99364.08
2024-04-17T15:08:37.642Z,99368.37
2024-04-17T15:11:15.129Z,99365.86
2024-04-17T15:13:44.098Z,99364.89
2024-04-17T15:16:13.959Z,99366.54
2024-04-17T15:18:42.720Z,99372.20
2024-04-17T15:21:13.531Z,99377.41
2024-04-17T15:23:46.103Z,99377.08
2024-04-17T15:26:15.719Z,99375.70
2024-04-17T15:28:43.945Z,99376.70
2024-04-17T15:31:20.046Z,99376.29
2024-04-17T15:33:49.960Z,99380.52
2024-04-17T15:36:18.760Z,99376.27
2024-04-17T15:38:49.549Z,99381.77
2024-04-17T15:41:17.465Z,99384.36
2024-04-17T15:43:48.029Z,99382.48
2024-04-17T15:46:17.969Z,99382.30
2024-04-17T15:48:47.269Z,99386.30
2024-04-17T15:51:21.044Z,99381.34
2024-04-17T15:53:49.762Z,99382.73
2024-04-17T15:56:19.581Z,99384.30
2024-04-17T15:58:48.809Z,99388.98
2024-04-17T16:01:19.985Z,99393.11
2024-04-17T16:03:53.492Z,99391.48
2024-04-17T16:06:23.988Z,99392.08
2024-04-17T16:08:53.115Z,99394.02
2024-04-17T16:11:22.865Z,99396.46
2024-04-17T16:13:51.300Z,99392.83
2024-04-17T16:16:19.827Z,99393.77
2024-04-17T16:18:48.045Z,99393.80
2024-04-17T16:21:17.903Z,99397.73
2024-04-17T16:23:46.358Z,99398.65
2024-04-17T16:26:16.220Z,99406.63
2024-04-17T16:28:47.529Z,99410.39
2024-04-17T16:31:16.453Z,99410.86
2024-04-17T16:33:46.262Z,99412.70
2024-04-17T16:36:15.136Z,99416.70
2024-04-17T16:38:43.266Z,99417.23
2024-04-17T16:41:12.010Z,99415.80
2024-04-17T16:43:40.168Z,99422.63
2024-04-17T16:46:09.796Z,99420.60
2024-04-17T16:48:40.666Z,99428.26
2024-04-17T16:51:10.113Z,99428.84
2024-04-17T16:53:38.414Z,99434.08
2024-04-17T16:56:06.692Z,99437.69
2024-04-17T16:58:38.400Z,99441.00
2024-04-17T17:01:07.427Z,99444.51
2024-04-17T17:03:35.685Z,99452.76
2024-04-17T17:06:04.316Z,99461.80
2024-04-17T17:08:32.481Z,99465.66
2024-04-17T17:11:00.312Z,99461.59
2024-04-17T17:13:28.165Z,99462.64
2024-04-17T17:16:03.958Z,99469.46
2024-04-17T17:18:33.157Z,99472.73
2024-04-17T17:21:08.155Z,99476.23
2024-04-17T17:23:36.711Z,99475.21
2024-04-17T17:26:13.333Z,99480.90
2024-04-17T17:28:45.624Z,99480.93
2024-04-17T17:31:13.534Z,99485.33
2024-04-17T17:33:42.166Z,99488.17
2024-04-17T17:36:14.652Z,99493.65
2024-04-17T17:38:44.517Z,99496.38
2024-04-17T17:41:19.694Z,99500.23
2024-04-17T17:43:49.083Z,99500.04
2024-04-17T17:46:18.544Z,99502.83
2024-04-17T17:48:47.889Z,99507.12
2024-04-17T17:51:17.266Z,99510.08
2024-04-17T17:53:45.564Z,99512.28
2024-04-17T17:56:15.644Z,99514.46
2024-04-17T17:58:48.697Z,99515.97
2024-04-17T18:01:19.989Z,99520.73
2024-04-17T18:03:50.215Z,99526.79
2024-04-17T18:06:18.791Z,99525.33
2024-04-17T18:08:47.185Z,99527.23
2024-04-17T18:11:16.074Z,99532.64
2024-04-17T18:13:44.571Z,99534.45
2024-04-17T18:16:20.534Z,99540.23
2024-04-17T18:18:56.957Z,99543.48
2024-04-17T18:21:24.812Z,99550.03
2024-04-17T18:23:53.584Z,99554.05
2024-04-17T18:26:24.297Z,99556.22
2024-04-17T18:28:53.627Z,99559.45
2024-04-17T18:31:21.741Z,99562.73
2024-04-17T18:33:51.977Z,99563.77
2024-04-17T18:36:29.365Z,99564.83
2024-04-17T18:38:58.696Z,99568.27
2024-04-17T18:41:27.077Z,99569.96
2024-04-17T18:43:56.731Z,99567.52
2024-04-17T18:46:26.657Z,99571.60
2024-04-17T18:48:56.437Z,99572.20
2024-04-17T18:51:24.806Z,99576.09
2024-04-17T18:53:53.666Z,99580.64
2024-04-17T18:56:23.837Z,99581.84
2024-04-17T18:58:51.689Z,99582.52
2024-04-17T19:01:23.869Z,99585.08
2024-04-17T19:03:52.212Z,99582.95
2024-04-17T19:06:20.852Z,99589.71
2024-04-17T19:08:50.255Z,99588.46
2024-04-17T19:11:18.609Z,99592.69
2024-04-17T19:13:46.480Z,99593.80
2024-04-17T19:16:16.563Z,99594.40
2024-04-17T19:18:45.948Z,99595.75
2024-04-17T19:21:15.715Z,99595.41
2024-04-17T19:23:44.766Z,99597.23
2024-04-17T19:26:14.224Z,99600.80
2024-04-17T19:28:44.104Z,99600.31
2024-04-17T19:31:12.493Z,99598.84
2024-04-17T19:33:43.778Z,99597.70
2024-04-17T19:36:12.355Z,99600.02
2024-04-17T19:38:43.294Z,99600.16
2024-04-17T19:41:12.815Z,99605.33
2024-04-17T19:43:42.100Z,99607.98
2024-04-17T19:46:12.997Z,99608.41
2024-04-17T19:50:16.827Z,99608.20
2024-04-17T19:52:47.245Z,99610.77
2024-04-17T19:55:16.008Z,99611.83
2024-04-17T19:57:43.855Z,99607.33
2024-04-17T20:00:13.932Z,99608.41
2024-04-17T20:02:41.920Z,99610.91
2024-04-17T20:05:09.905Z,99608.98
2024-04-17T20:07:38.039Z,99607.60
2024-04-17T20:10:06.296Z,99608.72
2024-04-17T20:12:34.041Z,99604.80
2024-04-17T20:15:01.764Z,99607.94
2024-04-17T20:17:29.725Z,99604.08
2024-04-17T20:19:58.107Z,99607.79
2024-04-17T20:22:26.172Z,99609.91
2024-04-17T20:24:54.151Z,99612.89
2024-04-17T20:27:22.281Z,99614.25
2024-04-17T20:29:50.628Z,99612.46
2024-04-17T20:32:18.969Z,99615.31
2024-04-17T20:34:49.497Z,99616.77
2024-04-17T20:37:17.468Z,99616.71
2024-04-17T20:39:45.465Z,99612.27
2024-04-17T20:42:13.465Z,99613.14
2024-04-17T20:44:43.134Z,99613.77
2024-04-17T20:47:11.112Z,99617.63
2024-04-17T20:49:39.481Z,99617.20
2024-04-17T20:52:07.966Z,99621.81
2024-04-17T20:54:36.869Z,99625.66
2024-04-17T20:57:06.284Z,99626.50
2024-04-17T20:59:34.760Z,99634.00
2024-04-17T21:02:04.755Z,99637.61
2024-04-17T21:04:53.591Z,99639.17
2024-04-17T21:07:21.267Z,99641.60
2024-04-17T21:09:49.409Z,99643.86
2024-04-17T21:12:17.390Z,99644.64
2024-04-17T21:14:45.094Z,99647.60
2024-04-17T21:17:13.093Z,99648.45
2024-04-17T21:19:40.918Z,99655.33
2024-04-17T21:22:08.581Z,99656.95
2024-04-17T21:24:36.415Z,99659.30
2024-04-17T21:27:04.373Z,99657.82
2024-04-17T21:29:32.089Z,99660.05
2024-04-17T21:32:05.774Z,99658.92
2024-04-17T21:34:34.357Z,99663.69
2024-04-17T21:37:03.043Z,99660.16
2024-04-17T21:39:30.742Z,99662.27
2024-04-17T21:41:58.900Z,99666.67
2024-04-17T21:44:26.837Z,99665.91
2024-04-17T21:46:54.976Z,99670.55
2024-04-17T21:49:22.770Z,99671.23
2024-04-17T21:51:50.642Z,99673.96
2024-04-17T21:54:18.415Z,99674.26
2024-04-17T21:56:46.583Z,99678.58
2024-04-17T21:59:14.391Z,99682.25
2024-04-17T22:01:42.918Z,99679.27
2024-04-17T22:04:10.718Z,99684.67
2024-04-17T22:06:38.939Z,99688.84
2024-04-17T22:09:06.913Z,99689.06
2024-04-17T22:11:34.893Z,99688.83
2024-04-17T22:14:02.626Z,99688.34
2024-04-17T22:16:30.193Z,99688.02
2024-04-17T22:18:58.111Z,99690.23
2024-04-17T22:21:25.862Z,99693.05
2024-04-17T22:23:53.694Z,99696.02
2024-04-17T22:26:21.362Z,99698.69
2024-04-17T22:28:50.142Z,99694.20
2024-04-17T22:31:17.710Z,99696.09
2024-04-17T22:33:45.428Z,99696.91
2024-04-17T22:36:13.161Z,99695.77
2024-04-17T22:38:41.107Z,99694.59
2024-04-17T22:41:08.866Z,99694.27
2024-04-17T22:43:36.732Z,99693.71
2024-04-17T22:46:04.710Z,99691.73
2024-04-17T22:48:32.385Z,99693.94
2024-04-17T22:51:00.153Z,99696.00
2024-04-17T22:53:27.920Z,99696.84
2024-04-17T22:55:55.670Z,99690.38
2024-04-17T22:58:23.541Z,99694.25
2024-04-17T23:00:51.601Z,99694.60
2024-04-17T23:03:20.475Z,99695.83
2024-04-17T23:05:48.272Z,99694.75
2024-04-17T23:08:15.933Z,99697.00
2024-04-17T23:10:43.912Z,99700.56
2024-04-17T23:13:11.671Z,99701.53
2024-04-17T23:15:39.480Z,99699.98
2024-04-17T23:18:07.482Z,99700.30
2024-04-17T23:20:35.380Z,99700.34
2024-04-17T23:23:04.064Z,99699.30
2024-04-17T23:25:31.840Z,99700.48
2024-04-17T23:27:59.905Z,99700.23
2024-04-17T23:30:27.680Z,99697.73
2024-04-17T23:32:55.539Z,99696.04
2024-04-17T23:35:23.429Z,99695.98
2024-04-17T23:37:51.168Z,99691.85
2024-04-17T23:40:18.826Z,99691.92
2024-04-17T23:42:46.741Z,99691.14
2024-04-17T23:45:14.757Z,99692.65
2024-04-17T23:47:42.542Z,99688.11
2024-04-17T23:50:10.301Z,99687.61
2024-04-17T23:52:38.174Z,99685.73
2024-04-17T23:55:06.349Z,99685.20
2024-04-17T23:57:34.319Z,99687.00
